sensor_id;sensor_type;location;lat;lon;timestamp;P1;durP1;ratioP1;P2;durP2;ratioP2
84638;SDS011;74869;51.924;5.712;2024-03-23T00:55:55;11.95;;;4.22;;
84638;SDS011;74869;51.924;5.712;2024-03-23T00:58:20;12.63;;;4.63;;
84638;SDS011;74869;51.924;5.712;2024-03-23T01:00:46;10.87;;;3.70;;
84638;SDS011;74869;51.924;5.712;2024-03-23T01:03:11;11.33;;;3.90;;
84638;SDS011;74869;51.924;5.712;2024-03-23T01:05:36;10.70;;;3.87;;
84638;SDS011;74869;51.924;5.712;2024-03-23T01:08:02;9.93;;;4.00;;
84638;SDS011;74869;51.924;5.712;2024-03-23T01:10:27;9.18;;;3.60;;
84638;SDS011;74869;51.924;5.712;2024-03-23T01:12:52;9.90;;;4.10;;
84638;SDS011;74869;51.924;5.712;2024-03-23T01:15:18;17.80;;;5.07;;
84638;SDS011;74869;51.924;5.712;2024-03-23T01:17:43;11.73;;;4.07;;
84638;SDS011;74869;51.924;5.712;2024-03-23T01:20:08;12.70;;;4.10;;
84638;SDS011;74869;51.924;5.712;2024-03-23T01:22:34;11.07;;;3.90;;
84638;SDS011;74869;51.924;5.712;2024-03-23T01:24:59;12.17;;;4.27;;
84638;SDS011;74869;51.924;5.712;2024-03-23T01:27:24;13.97;;;4.63;;
84638;SDS011;74869;51.924;5.712;2024-03-23T01:29:50;12.52;;;4.07;;
84638;SDS011;74869;51.924;5.712;2024-03-23T01:32:17;9.73;;;4.50;;
84638;SDS011;74869;51.924;5.712;2024-03-23T01:34:43;12.20;;;4.43;;
84638;SDS011;74869;51.924;5.712;2024-03-23T01:37:08;15.83;;;4.57;;
84638;SDS011;74869;51.924;5.712;2024-03-23T01:39:34;14.68;;;4.85;;
84638;SDS011;74869;51.924;5.712;2024-03-23T01:41:59;18.40;;;5.50;;
84638;SDS011;74869;51.924;5.712;2024-03-23T01:44:25;10.52;;;4.82;;
84638;SDS011;74869;51.924;5.712;2024-03-23T01:46:50;13.77;;;4.87;;
84638;SDS011;74869;51.924;5.712;2024-03-23T01:49:16;14.80;;;6.63;;
84638;SDS011;74869;51.924;5.712;2024-03-23T01:51:42;15.18;;;5.93;;
84638;SDS011;74869;51.924;5.712;2024-03-23T01:54:08;17.63;;;6.68;;
84638;SDS011;74869;51.924;5.712;2024-03-23T01:56:34;15.55;;;6.97;;
84638;SDS011;74869;51.924;5.712;2024-03-23T01:59:06;19.15;;;7.68;;
84638;SDS011;74869;51.924;5.712;2024-03-23T02:01:32;21.80;;;7.05;;
84638;SDS011;74869;51.924;5.712;2024-03-23T02:03:58;20.17;;;6.80;;
84638;SDS011;74869;51.924;5.712;2024-03-23T02:06:25;17.33;;;7.63;;
84638;SDS011;74869;51.924;5.712;2024-03-23T02:08:51;21.83;;;8.23;;
84638;SDS011;74869;51.924;5.712;2024-03-23T02:11:17;23.42;;;9.10;;
84638;SDS011;74869;51.924;5.712;2024-03-23T02:13:43;25.25;;;9.40;;
84638;SDS011;74869;51.924;5.712;2024-03-23T02:16:08;27.10;;;10.25;;
84638;SDS011;74869;51.924;5.712;2024-03-23T02:18:33;28.25;;;9.75;;
84638;SDS011;74869;51.924;5.712;2024-03-23T02:20:59;27.30;;;9.32;;
84638;SDS011;74869;51.924;5.712;2024-03-23T02:23:24;26.30;;;9.87;;
84638;SDS011;74869;51.924;5.712;2024-03-23T02:25:50;20.80;;;9.07;;
84638;SDS011;74869;51.924;5.712;2024-03-23T02:28:15;24.85;;;9.48;;
84638;SDS011;74869;51.924;5.712;2024-03-23T02:30:42;24.98;;;9.15;;
84638;SDS011;74869;51.924;5.712;2024-03-23T02:33:07;22.38;;;9.98;;
84638;SDS011;74869;51.924;5.712;2024-03-23T02:35:32;31.27;;;10.30;;
84638;SDS011;74869;51.924;5.712;2024-03-23T02:37:58;24.50;;;8.63;;
84638;SDS011;74869;51.924;5.712;2024-03-23T02:40:24;21.48;;;9.43;;
84638;SDS011;74869;51.924;5.712;2024-03-23T02:42:49;22.42;;;9.70;;
84638;SDS011;74869;51.924;5.712;2024-03-23T02:45:15;29.55;;;9.48;;
84638;SDS011;74869;51.924;5.712;2024-03-23T02:47:40;26.83;;;9.55;;
84638;SDS011;74869;51.924;5.712;2024-03-23T02:50:06;24.00;;;8.82;;
84638;SDS011;74869;51.924;5.712;2024-03-23T02:52:31;23.60;;;9.07;;
84638;SDS011;74869;51.924;5.712;2024-03-23T02:54:57;20.87;;;8.67;;
84638;SDS011;74869;51.924;5.712;2024-03-23T02:57:23;26.92;;;8.57;;
84638;SDS011;74869;51.924;5.712;2024-03-23T02:59:48;21.67;;;8.98;;
84638;SDS011;74869;51.924;5.712;2024-03-23T03:02:14;22.63;;;8.90;;
84638;SDS011;74869;51.924;5.712;2024-03-23T03:04:40;26.75;;;9.80;;
84638;SDS011;74869;51.924;5.712;2024-03-23T03:07:05;22.83;;;9.13;;
84638;SDS011;74869;51.924;5.712;2024-03-23T03:09:31;22.92;;;9.52;;
84638;SDS011;74869;51.924;5.712;2024-03-23T03:11:57;18.95;;;8.82;;
84638;SDS011;74869;51.924;5.712;2024-03-23T03:14:23;21.60;;;7.95;;
84638;SDS011;74869;51.924;5.712;2024-03-23T03:16:48;24.23;;;9.07;;
84638;SDS011;74869;51.924;5.712;2024-03-23T03:19:13;22.07;;;8.70;;
84638;SDS011;74869;51.924;5.712;2024-03-23T03:21:39;18.93;;;8.37;;
84638;SDS011;74869;51.924;5.712;2024-03-23T03:24:06;17.47;;;7.67;;
84638;SDS011;74869;51.924;5.712;2024-03-23T03:26:31;21.83;;;8.30;;
84638;SDS011;74869;51.924;5.712;2024-03-23T03:28:57;20.40;;;7.97;;
84638;SDS011;74869;51.924;5.712;2024-03-23T03:31:22;22.20;;;7.93;;
84638;SDS011;74869;51.924;5.712;2024-03-23T03:33:49;14.67;;;7.07;;
84638;SDS011;74869;51.924;5.712;2024-03-23T03:36:15;17.83;;;8.20;;
84638;SDS011;74869;51.924;5.712;2024-03-23T03:38:40;20.90;;;7.77;;
84638;SDS011;74869;51.924;5.712;2024-03-23T03:41:05;23.37;;;8.07;;
84638;SDS011;74869;51.924;5.712;2024-03-23T03:43:31;24.35;;;7.68;;
84638;SDS011;74869;51.924;5.712;2024-03-23T03:45:57;20.95;;;7.80;;
84638;SDS011;74869;51.924;5.712;2024-03-23T03:48:24;18.67;;;6.82;;
84638;SDS011;74869;51.924;5.712;2024-03-23T03:50:50;18.73;;;7.13;;
84638;SDS011;74869;51.924;5.712;2024-03-23T03:53:15;19.30;;;7.15;;
84638;SDS011;74869;51.924;5.712;2024-03-23T03:55:41;15.90;;;6.97;;
84638;SDS011;74869;51.924;5.712;2024-03-23T03:58:06;14.15;;;5.95;;
84638;SDS011;74869;51.924;5.712;2024-03-23T04:00:32;20.60;;;6.63;;
84638;SDS011;74869;51.924;5.712;2024-03-23T04:02:57;12.43;;;5.40;;
84638;SDS011;74869;51.924;5.712;2024-03-23T04:05:22;15.50;;;5.50;;
84638;SDS011;74869;51.924;5.712;2024-03-23T04:07:48;15.10;;;4.82;;
84638;SDS011;74869;51.924;5.712;2024-03-23T04:10:13;13.57;;;5.10;;
84638;SDS011;74869;51.924;5.712;2024-03-23T04:12:40;12.95;;;4.70;;
84638;SDS011;74869;51.924;5.712;2024-03-23T04:15:06;16.92;;;4.80;;
84638;SDS011;74869;51.924;5.712;2024-03-23T04:17:31;15.85;;;5.22;;
84638;SDS011;74869;51.924;5.712;2024-03-23T04:19:58;15.00;;;4.68;;
84638;SDS011;74869;51.924;5.712;2024-03-23T04:22:25;12.98;;;4.50;;
84638;SDS011;74869;51.924;5.712;2024-03-23T04:24:52;12.35;;;4.55;;
84638;SDS011;74869;51.924;5.712;2024-03-23T04:27:21;8.88;;;4.00;;
84638;SDS011;74869;51.924;5.712;2024-03-23T04:29:48;15.35;;;4.00;;
84638;SDS011;74869;51.924;5.712;2024-03-23T04:32:14;9.80;;;3.83;;
84638;SDS011;74869;51.924;5.712;2024-03-23T04:34:39;14.27;;;4.38;;
84638;SDS011;74869;51.924;5.712;2024-03-23T04:37:05;12.40;;;4.30;;
84638;SDS011;74869;51.924;5.712;2024-03-23T04:39:30;18.02;;;4.68;;
84638;SDS011;74869;51.924;5.712;2024-03-23T04:41:55;13.60;;;4.40;;
84638;SDS011;74869;51.924;5.712;2024-03-23T04:44:21;14.57;;;3.93;;
84638;SDS011;74869;51.924;5.712;2024-03-23T04:46:46;11.07;;;3.60;;
84638;SDS011;74869;51.924;5.712;2024-03-23T04:49:11;11.25;;;3.97;;
84638;SDS011;74869;51.924;5.712;2024-03-23T04:51:37;10.90;;;4.73;;
84638;SDS011;74869;51.924;5.712;2024-03-23T04:54:02;13.73;;;3.42;;
84638;SDS011;74869;51.924;5.712;2024-03-23T04:56:29;11.43;;;3.78;;
84638;SDS011;74869;51.924;5.712;2024-03-23T04:58:55;10.00;;;3.55;;
84638;SDS011;74869;51.924;5.712;2024-03-23T05:01:25;9.38;;;3.55;;
84638;SDS011;74869;51.924;5.712;2024-03-23T05:03:51;12.85;;;4.38;;
84638;SDS011;74869;51.924;5.712;2024-03-23T05:06:16;14.17;;;3.50;;
84638;SDS011;74869;51.924;5.712;2024-03-23T05:08:41;10.97;;;4.07;;
84638;SDS011;74869;51.924;5.712;2024-03-23T05:11:07;12.27;;;3.70;;
84638;SDS011;74869;51.924;5.712;2024-03-23T05:13:32;11.13;;;3.63;;
84638;SDS011;74869;51.924;5.712;2024-03-23T05:15:57;11.67;;;4.10;;
84638;SDS011;74869;51.924;5.712;2024-03-23T05:18:24;12.05;;;4.43;;
84638;SDS011;74869;51.924;5.712;2024-03-23T05:20:55;14.30;;;4.10;;
84638;SDS011;74869;51.924;5.712;2024-03-23T05:23:21;11.93;;;4.43;;
84638;SDS011;74869;51.924;5.712;2024-03-23T05:25:46;16.73;;;4.70;;
84638;SDS011;74869;51.924;5.712;2024-03-23T05:28:12;15.07;;;4.10;;
84638;SDS011;74869;51.924;5.712;2024-03-23T05:30:38;11.97;;;4.20;;
84638;SDS011;74869;51.924;5.712;2024-03-23T05:33:03;10.23;;;4.63;;
84638;SDS011;74869;51.924;5.712;2024-03-23T05:35:28;11.30;;;4.20;;
84638;SDS011;74869;51.924;5.712;2024-03-23T05:37:54;18.80;;;4.90;;
84638;SDS011;74869;51.924;5.712;2024-03-23T05:40:19;13.60;;;4.03;;
84638;SDS011;74869;51.924;5.712;2024-03-23T05:42:44;11.17;;;4.13;;
84638;SDS011;74869;51.924;5.712;2024-03-23T05:45:10;11.67;;;4.07;;
84638;SDS011;74869;51.924;5.712;2024-03-23T05:47:36;11.85;;;4.35;;
84638;SDS011;74869;51.924;5.712;2024-03-23T05:50:01;11.33;;;4.50;;
84638;SDS011;74869;51.924;5.712;2024-03-23T05:52:27;11.73;;;4.43;;
84638;SDS011;74869;51.924;5.712;2024-03-23T05:54:53;11.23;;;4.30;;
84638;SDS011;74869;51.924;5.712;2024-03-23T05:57:18;12.80;;;4.27;;
84638;SDS011;74869;51.924;5.712;2024-03-23T05:59:44;9.55;;;3.67;;
84638;SDS011;74869;51.924;5.712;2024-03-23T06:02:09;10.85;;;4.70;;
84638;SDS011;74869;51.924;5.712;2024-03-23T06:04:35;14.90;;;4.10;;
84638;SDS011;74869;51.924;5.712;2024-03-23T06:07:01;9.60;;;3.50;;
84638;SDS011;74869;51.924;5.712;2024-03-23T06:09:26;12.55;;;4.72;;
84638;SDS011;74869;51.924;5.712;2024-03-23T06:11:52;12.77;;;3.70;;
84638;SDS011;74869;51.924;5.712;2024-03-23T06:14:17;8.00;;;3.43;;
84638;SDS011;74869;51.924;5.712;2024-03-23T06:16:42;15.07;;;4.17;;
84638;SDS011;74869;51.924;5.712;2024-03-23T06:19:07;9.97;;;4.00;;
84638;SDS011;74869;51.924;5.712;2024-03-23T06:21:33;12.93;;;4.22;;
84638;SDS011;74869;51.924;5.712;2024-03-23T06:23:58;14.93;;;3.50;;
84638;SDS011;74869;51.924;5.712;2024-03-23T06:26:24;11.00;;;3.40;;
84638;SDS011;74869;51.924;5.712;2024-03-23T06:28:49;8.70;;;3.08;;
84638;SDS011;74869;51.924;5.712;2024-03-23T06:31:14;8.10;;;3.80;;
84638;SDS011;74869;51.924;5.712;2024-03-23T06:33:40;8.03;;;2.73;;
84638;SDS011;74869;51.924;5.712;2024-03-23T06:36:07;15.60;;;3.50;;
84638;SDS011;74869;51.924;5.712;2024-03-23T06:38:34;11.82;;;3.78;;
84638;SDS011;74869;51.924;5.712;2024-03-23T06:41:02;10.68;;;3.58;;
84638;SDS011;74869;51.924;5.712;2024-03-23T06:43:27;11.45;;;3.83;;
84638;SDS011;74869;51.924;5.712;2024-03-23T06:45:53;9.30;;;3.28;;
84638;SDS011;74869;51.924;5.712;2024-03-23T06:48:19;7.55;;;3.63;;
84638;SDS011;74869;51.924;5.712;2024-03-23T06:50:45;9.27;;;3.45;;
84638;SDS011;74869;51.924;5.712;2024-03-23T06:53:12;13.20;;;4.28;;
84638;SDS011;74869;51.924;5.712;2024-03-23T06:55:38;11.27;;;3.47;;
84638;SDS011;74869;51.924;5.712;2024-03-23T06:58:03;12.07;;;3.75;;
84638;SDS011;74869;51.924;5.712;2024-03-23T07:00:29;8.15;;;3.50;;
84638;SDS011;74869;51.924;5.712;2024-03-23T07:02:54;9.48;;;4.15;;
84638;SDS011;74869;51.924;5.712;2024-03-23T07:05:19;11.37;;;3.03;;
84638;SDS011;74869;51.924;5.712;2024-03-23T07:07:45;10.35;;;3.25;;
84638;SDS011;74869;51.924;5.712;2024-03-23T07:10:10;12.20;;;3.37;;
84638;SDS011;74869;51.924;5.712;2024-03-23T07:12:35;11.20;;;3.27;;
84638;SDS011;74869;51.924;5.712;2024-03-23T07:15:01;9.87;;;2.77;;
84638;SDS011;74869;51.924;5.712;2024-03-23T07:17:26;11.90;;;3.43;;
84638;SDS011;74869;51.924;5.712;2024-03-23T07:19:51;11.80;;;3.28;;
84638;SDS011;74869;51.924;5.712;2024-03-23T07:22:17;8.43;;;3.53;;
84638;SDS011;74869;51.924;5.712;2024-03-23T07:24:43;9.63;;;3.27;;
84638;SDS011;74869;51.924;5.712;2024-03-23T07:27:09;6.85;;;2.58;;
84638;SDS011;74869;51.924;5.712;2024-03-23T07:29:35;16.52;;;3.20;;
84638;SDS011;74869;51.924;5.712;2024-03-23T07:32:01;8.20;;;2.90;;
84638;SDS011;74869;51.924;5.712;2024-03-23T07:34:26;8.53;;;2.80;;
84638;SDS011;74869;51.924;5.712;2024-03-23T07:36:51;8.90;;;2.47;;
84638;SDS011;74869;51.924;5.712;2024-03-23T07:39:17;9.60;;;3.13;;
84638;SDS011;74869;51.924;5.712;2024-03-23T07:41:44;10.15;;;3.05;;
84638;SDS011;74869;51.924;5.712;2024-03-23T07:44:10;7.22;;;2.63;;
84638;SDS011;74869;51.924;5.712;2024-03-23T07:46:35;8.02;;;2.85;;
84638;SDS011;74869;51.924;5.712;2024-03-23T07:49:01;10.43;;;2.67;;
84638;SDS011;74869;51.924;5.712;2024-03-23T07:51:26;7.97;;;2.70;;
84638;SDS011;74869;51.924;5.712;2024-03-23T07:53:51;13.30;;;3.05;;
84638;SDS011;74869;51.924;5.712;2024-03-23T07:56:20;10.60;;;3.10;;
84638;SDS011;74869;51.924;5.712;2024-03-23T07:58:46;7.50;;;2.80;;
84638;SDS011;74869;51.924;5.712;2024-03-23T08:01:12;7.75;;;2.92;;
84638;SDS011;74869;51.924;5.712;2024-03-23T08:08:34;7.47;;;2.58;;
84638;SDS011;74869;51.924;5.712;2024-03-23T08:11:00;8.20;;;2.65;;
84638;SDS011;74869;51.924;5.712;2024-03-23T08:13:26;6.47;;;3.13;;
84638;SDS011;74869;51.924;5.712;2024-03-23T08:15:51;8.85;;;3.05;;
84638;SDS011;74869;51.924;5.712;2024-03-23T08:18:17;8.43;;;2.58;;
84638;SDS011;74869;51.924;5.712;2024-03-23T08:20:42;6.60;;;2.10;;
84638;SDS011;74869;51.924;5.712;2024-03-23T08:23:07;8.10;;;2.10;;
84638;SDS011;74869;51.924;5.712;2024-03-23T08:25:33;5.97;;;1.83;;
84638;SDS011;74869;51.924;5.712;2024-03-23T08:27:59;7.38;;;2.42;;
84638;SDS011;74869;51.924;5.712;2024-03-23T08:30:25;6.95;;;2.60;;
84638;SDS011;74869;51.924;5.712;2024-03-23T08:32:50;7.82;;;2.35;;
84638;SDS011;74869;51.924;5.712;2024-03-23T08:35:16;6.82;;;2.35;;
84638;SDS011;74869;51.924;5.712;2024-03-23T08:37:41;8.52;;;2.20;;
84638;SDS011;74869;51.924;5.712;2024-03-23T08:40:07;10.77;;;2.73;;
84638;SDS011;74869;51.924;5.712;2024-03-23T08:42:33;9.18;;;2.40;;
84638;SDS011;74869;51.924;5.712;2024-03-23T08:44:59;7.88;;;2.03;;
84638;SDS011;74869;51.924;5.712;2024-03-23T08:47:24;5.03;;;1.97;;
84638;SDS011;74869;51.924;5.712;2024-03-23T08:49:49;7.93;;;2.27;;
84638;SDS011;74869;51.924;5.712;2024-03-23T08:52:14;8.20;;;1.93;;
84638;SDS011;74869;51.924;5.712;2024-03-23T08:54:40;8.55;;;2.00;;
84638;SDS011;74869;51.924;5.712;2024-03-23T08:57:17;4.60;;;1.70;;
84638;SDS011;74869;51.924;5.712;2024-03-23T08:59:43;9.65;;;2.72;;
84638;SDS011;74869;51.924;5.712;2024-03-23T09:02:08;5.05;;;1.75;;
84638;SDS011;74869;51.924;5.712;2024-03-23T09:04:34;5.95;;;2.05;;
84638;SDS011;74869;51.924;5.712;2024-03-23T09:07:00;4.82;;;1.30;;
84638;SDS011;74869;51.924;5.712;2024-03-23T09:09:25;8.00;;;1.92;;
84638;SDS011;74869;51.924;5.712;2024-03-23T09:11:51;4.97;;;1.50;;
84638;SDS011;74869;51.924;5.712;2024-03-23T09:14:16;4.18;;;1.05;;
84638;SDS011;74869;51.924;5.712;2024-03-23T09:16:41;3.93;;;1.50;;
84638;SDS011;74869;51.924;5.712;2024-03-23T09:19:07;6.90;;;1.55;;
84638;SDS011;74869;51.924;5.712;2024-03-23T09:21:32;6.03;;;1.83;;
84638;SDS011;74869;51.924;5.712;2024-03-23T09:23:58;6.70;;;2.45;;
84638;SDS011;74869;51.924;5.712;2024-03-23T09:26:23;3.38;;;1.42;;
84638;SDS011;74869;51.924;5.712;2024-03-23T09:28:48;4.43;;;1.47;;
84638;SDS011;74869;51.924;5.712;2024-03-23T09:31:14;3.55;;;1.75;;
84638;SDS011;74869;51.924;5.712;2024-03-23T09:33:40;5.07;;;1.45;;
84638;SDS011;74869;51.924;5.712;2024-03-23T09:36:06;3.90;;;1.83;;
84638;SDS011;74869;51.924;5.712;2024-03-23T09:38:32;6.90;;;1.95;;
84638;SDS011;74869;51.924;5.712;2024-03-23T09:40:58;6.63;;;1.40;;
84638;SDS011;74869;51.924;5.712;2024-03-23T09:43:24;8.55;;;1.70;;
84638;SDS011;74869;51.924;5.712;2024-03-23T09:45:50;6.00;;;1.70;;
84638;SDS011;74869;51.924;5.712;2024-03-23T09:48:16;3.53;;;1.67;;
84638;SDS011;74869;51.924;5.712;2024-03-23T09:50:42;6.05;;;1.77;;
84638;SDS011;74869;51.924;5.712;2024-03-23T09:53:09;7.80;;;1.50;;
84638;SDS011;74869;51.924;5.712;2024-03-23T09:55:42;6.10;;;1.85;;
84638;SDS011;74869;51.924;5.712;2024-03-23T09:58:12;3.45;;;1.52;;
84638;SDS011;74869;51.924;5.712;2024-03-23T10:00:38;2.60;;;1.40;;
84638;SDS011;74869;51.924;5.712;2024-03-23T10:03:03;3.42;;;1.40;;
84638;SDS011;74869;51.924;5.712;2024-03-23T10:05:30;4.22;;;1.77;;
84638;SDS011;74869;51.924;5.712;2024-03-23T10:10:39;5.35;;;1.55;;
84638;SDS011;74869;51.924;5.712;2024-03-23T10:13:05;4.25;;;1.52;;
84638;SDS011;74869;51.924;5.712;2024-03-23T10:15:30;6.27;;;2.00;;
84638;SDS011;74869;51.924;5.712;2024-03-23T10:17:59;5.68;;;1.85;;
84638;SDS011;74869;51.924;5.712;2024-03-23T10:20:42;5.18;;;1.50;;
84638;SDS011;74869;51.924;5.712;2024-03-23T10:23:15;5.53;;;1.90;;
84638;SDS011;74869;51.924;5.712;2024-03-23T10:25:41;5.15;;;1.52;;
84638;SDS011;74869;51.924;5.712;2024-03-23T10:28:07;3.80;;;1.42;;
84638;SDS011;74869;51.924;5.712;2024-03-23T10:30:32;5.07;;;1.80;;
84638;SDS011;74869;51.924;5.712;2024-03-23T10:35:52;7.82;;;2.28;;
84638;SDS011;74869;51.924;5.712;2024-03-23T10:38:18;5.97;;;2.30;;
84638;SDS011;74869;51.924;5.712;2024-03-23T10:40:44;8.57;;;2.20;;
84638;SDS011;74869;51.924;5.712;2024-03-23T10:43:09;6.70;;;2.30;;
84638;SDS011;74869;51.924;5.712;2024-03-23T10:45:35;6.25;;;2.05;;
84638;SDS011;74869;51.924;5.712;2024-03-23T10:48:01;7.83;;;2.63;;
84638;SDS011;74869;51.924;5.712;2024-03-23T10:50:27;6.50;;;2.20;;
84638;SDS011;74869;51.924;5.712;2024-03-23T10:52:53;3.35;;;1.70;;
84638;SDS011;74869;51.924;5.712;2024-03-23T10:55:20;3.20;;;1.90;;
84638;SDS011;74869;51.924;5.712;2024-03-23T10:57:50;5.78;;;1.80;;
84638;SDS011;74869;51.924;5.712;2024-03-23T11:00:19;4.20;;;1.50;;
84638;SDS011;74869;51.924;5.712;2024-03-23T11:02:46;6.63;;;1.98;;
84638;SDS011;74869;51.924;5.712;2024-03-23T11:07:50;6.53;;;2.20;;
84638;SDS011;74869;51.924;5.712;2024-03-23T11:10:25;5.28;;;1.80;;
84638;SDS011;74869;51.924;5.712;2024-03-23T11:12:58;3.50;;;2.03;;
84638;SDS011;74869;51.924;5.712;2024-03-23T11:15:43;8.15;;;2.28;;
84638;SDS011;74869;51.924;5.712;2024-03-23T11:18:09;4.70;;;1.60;;
84638;SDS011;74869;51.924;5.712;2024-03-23T11:20:35;4.20;;;1.67;;
84638;SDS011;74869;51.924;5.712;2024-03-23T11:23:00;4.50;;;1.65;;
84638;SDS011;74869;51.924;5.712;2024-03-23T11:25:26;3.20;;;1.40;;
84638;SDS011;74869;51.924;5.712;2024-03-23T11:27:54;5.65;;;1.50;;
84638;SDS011;74869;51.924;5.712;2024-03-23T11:30:24;4.75;;;1.50;;
84638;SDS011;74869;51.924;5.712;2024-03-23T11:32:51;5.78;;;1.63;;
84638;SDS011;74869;51.924;5.712;2024-03-23T11:35:39;8.05;;;1.95;;
84638;SDS011;74869;51.924;5.712;2024-03-23T11:40:38;5.80;;;2.55;;
84638;SDS011;74869;51.924;5.712;2024-03-23T11:43:06;5.85;;;1.58;;
84638;SDS011;74869;51.924;5.712;2024-03-23T11:45:36;4.00;;;1.52;;
84638;SDS011;74869;51.924;5.712;2024-03-23T11:48:19;7.32;;;1.80;;
84638;SDS011;74869;51.924;5.712;2024-03-23T11:50:49;3.85;;;1.45;;
84638;SDS011;74869;51.924;5.712;2024-03-23T11:53:20;5.80;;;1.40;;
84638;SDS011;74869;51.924;5.712;2024-03-23T11:55:52;3.33;;;1.17;;
84638;SDS011;74869;51.924;5.712;2024-03-23T11:58:25;3.53;;;1.35;;
84638;SDS011;74869;51.924;5.712;2024-03-23T12:01:01;4.68;;;1.45;;
84638;SDS011;74869;51.924;5.712;2024-03-23T12:03:28;5.72;;;1.58;;
84638;SDS011;74869;51.924;5.712;2024-03-23T12:05:55;4.97;;;1.90;;
84638;SDS011;74869;51.924;5.712;2024-03-23T12:11:09;9.45;;;2.00;;
84638;SDS011;74869;51.924;5.712;2024-03-23T12:13:36;5.43;;;2.22;;
84638;SDS011;74869;51.924;5.712;2024-03-23T12:16:18;6.10;;;2.00;;
84638;SDS011;74869;51.924;5.712;2024-03-23T12:18:48;5.97;;;2.60;;
84638;SDS011;74869;51.924;5.712;2024-03-23T12:21:14;10.57;;;2.28;;
84638;SDS011;74869;51.924;5.712;2024-03-23T12:23:41;5.82;;;1.80;;
84638;SDS011;74869;51.924;5.712;2024-03-23T12:26:09;5.32;;;1.30;;
84638;SDS011;74869;51.924;5.712;2024-03-23T12:28:35;3.83;;;1.88;;
84638;SDS011;74869;51.924;5.712;2024-03-23T12:31:00;6.80;;;1.57;;
84638;SDS011;74869;51.924;5.712;2024-03-23T12:33:25;3.63;;;1.30;;
84638;SDS011;74869;51.924;5.712;2024-03-23T12:35:51;4.60;;;1.47;;
84638;SDS011;74869;51.924;5.712;2024-03-23T12:38:17;6.40;;;1.60;;
84638;SDS011;74869;51.924;5.712;2024-03-23T12:40:46;4.20;;;1.50;;
84638;SDS011;74869;51.924;5.712;2024-03-23T12:43:13;7.47;;;1.73;;
84638;SDS011;74869;51.924;5.712;2024-03-23T12:45:38;2.20;;;1.38;;
84638;SDS011;74869;51.924;5.712;2024-03-23T12:48:04;3.30;;;1.37;;
84638;SDS011;74869;51.924;5.712;2024-03-23T12:50:29;3.25;;;1.40;;
84638;SDS011;74869;51.924;5.712;2024-03-23T12:52:54;7.10;;;1.83;;
84638;SDS011;74869;51.924;5.712;2024-03-23T12:55:20;5.55;;;1.20;;
84638;SDS011;74869;51.924;5.712;2024-03-23T12:57:46;6.22;;;1.85;;
84638;SDS011;74869;51.924;5.712;2024-03-23T13:00:12;4.18;;;1.30;;
84638;SDS011;74869;51.924;5.712;2024-03-23T13:02:38;3.47;;;1.25;;
84638;SDS011;74869;51.924;5.712;2024-03-23T13:05:04;4.70;;;1.52;;
84638;SDS011;74869;51.924;5.712;2024-03-23T13:07:30;8.73;;;1.75;;
84638;SDS011;74869;51.924;5.712;2024-03-23T13:09:56;3.05;;;1.13;;
84638;SDS011;74869;51.924;5.712;2024-03-23T13:12:21;4.05;;;1.38;;
84638;SDS011;74869;51.924;5.712;2024-03-23T13:14:47;3.22;;;1.23;;
84638;SDS011;74869;51.924;5.712;2024-03-23T13:17:12;3.27;;;1.40;;
84638;SDS011;74869;51.924;5.712;2024-03-23T13:19:38;3.50;;;1.23;;
84638;SDS011;74869;51.924;5.712;2024-03-23T13:22:04;6.43;;;1.30;;
84638;SDS011;74869;51.924;5.712;2024-03-23T13:24:29;7.82;;;1.45;;
84638;SDS011;74869;51.924;5.712;2024-03-23T13:26:55;5.65;;;1.33;;
84638;SDS011;74869;51.924;5.712;2024-03-23T13:29:22;4.68;;;1.65;;
84638;SDS011;74869;51.924;5.712;2024-03-23T13:31:48;4.68;;;1.17;;
84638;SDS011;74869;51.924;5.712;2024-03-23T13:34:14;6.35;;;1.45;;
84638;SDS011;74869;51.924;5.712;2024-03-23T13:36:41;4.95;;;1.02;;
84638;SDS011;74869;51.924;5.712;2024-03-23T13:39:09;4.88;;;1.63;;
84638;SDS011;74869;51.924;5.712;2024-03-23T13:41:38;5.43;;;1.35;;
84638;SDS011;74869;51.924;5.712;2024-03-23T13:44:07;5.55;;;1.50;;
84638;SDS011;74869;51.924;5.712;2024-03-23T13:46:37;4.80;;;1.00;;
84638;SDS011;74869;51.924;5.712;2024-03-23T13:49:03;5.85;;;1.52;;
84638;SDS011;74869;51.924;5.712;2024-03-23T13:51:28;3.95;;;1.00;;
84638;SDS011;74869;51.924;5.712;2024-03-23T13:53:54;6.15;;;1.25;;
84638;SDS011;74869;51.924;5.712;2024-03-23T13:56:21;6.22;;;1.60;;
84638;SDS011;74869;51.924;5.712;2024-03-23T13:58:47;5.70;;;1.48;;
84638;SDS011;74869;51.924;5.712;2024-03-23T14:01:13;6.68;;;1.50;;
84638;SDS011;74869;51.924;5.712;2024-03-23T14:03:39;8.95;;;1.55;;
84638;SDS011;74869;51.924;5.712;2024-03-23T14:06:05;3.97;;;1.55;;
84638;SDS011;74869;51.924;5.712;2024-03-23T14:08:32;6.15;;;1.60;;
84638;SDS011;74869;51.924;5.712;2024-03-23T14:11:00;7.38;;;2.25;;
84638;SDS011;74869;51.924;5.712;2024-03-23T14:13:26;4.18;;;1.10;;
84638;SDS011;74869;51.924;5.712;2024-03-23T14:15:55;4.25;;;2.00;;
84638;SDS011;74869;51.924;5.712;2024-03-23T14:18:21;9.52;;;2.10;;
84638;SDS011;74869;51.924;5.712;2024-03-23T14:20:51;3.47;;;1.20;;
84638;SDS011;74869;51.924;5.712;2024-03-23T14:23:17;5.47;;;1.35;;
84638;SDS011;74869;51.924;5.712;2024-03-23T14:25:42;9.55;;;1.42;;
84638;SDS011;74869;51.924;5.712;2024-03-23T14:28:07;3.73;;;1.40;;
84638;SDS011;74869;51.924;5.712;2024-03-23T14:30:39;2.00;;;1.02;;
84638;SDS011;74869;51.924;5.712;2024-03-23T14:33:07;3.55;;;1.10;;
84638;SDS011;74869;51.924;5.712;2024-03-23T14:35:33;4.28;;;1.30;;
84638;SDS011;74869;51.924;5.712;2024-03-23T14:37:59;3.95;;;1.40;;
84638;SDS011;74869;51.924;5.712;2024-03-23T14:40:24;4.07;;;1.25;;
84638;SDS011;74869;51.924;5.712;2024-03-23T14:42:52;5.13;;;1.45;;
84638;SDS011;74869;51.924;5.712;2024-03-23T14:45:18;6.40;;;1.88;;
84638;SDS011;74869;51.924;5.712;2024-03-23T14:47:43;6.73;;;1.47;;
84638;SDS011;74869;51.924;5.712;2024-03-23T14:50:09;3.53;;;1.30;;
84638;SDS011;74869;51.924;5.712;2024-03-23T14:52:39;4.88;;;1.55;;
84638;SDS011;74869;51.924;5.712;2024-03-23T14:55:04;7.90;;;1.77;;
84638;SDS011;74869;51.924;5.712;2024-03-23T14:57:30;3.15;;;1.10;;
84638;SDS011;74869;51.924;5.712;2024-03-23T14:59:55;6.13;;;1.20;;
84638;SDS011;74869;51.924;5.712;2024-03-23T15:02:21;6.40;;;1.17;;
84638;SDS011;74869;51.924;5.712;2024-03-23T15:04:46;5.57;;;1.30;;
84638;SDS011;74869;51.924;5.712;2024-03-23T15:07:11;4.60;;;1.00;;
84638;SDS011;74869;51.924;5.712;2024-03-23T15:09:36;4.43;;;1.00;;
84638;SDS011;74869;51.924;5.712;2024-03-23T15:12:02;4.00;;;1.23;;
84638;SDS011;74869;51.924;5.712;2024-03-23T15:14:27;5.35;;;1.55;;
84638;SDS011;74869;51.924;5.712;2024-03-23T15:16:53;4.33;;;1.70;;
84638;SDS011;74869;51.924;5.712;2024-03-23T15:19:19;3.67;;;1.13;;
84638;SDS011;74869;51.924;5.712;2024-03-23T15:21:44;3.80;;;1.23;;
84638;SDS011;74869;51.924;5.712;2024-03-23T15:24:09;10.73;;;2.08;;
84638;SDS011;74869;51.924;5.712;2024-03-23T15:26:36;6.40;;;1.80;;
84638;SDS011;74869;51.924;5.712;2024-03-23T15:29:04;3.47;;;1.45;;
84638;SDS011;74869;51.924;5.712;2024-03-23T15:31:36;5.88;;;1.02;;
84638;SDS011;74869;51.924;5.712;2024-03-23T15:34:02;4.38;;;1.40;;
84638;SDS011;74869;51.924;5.712;2024-03-23T15:36:27;2.13;;;0.95;;
84638;SDS011;74869;51.924;5.712;2024-03-23T15:38:52;4.00;;;0.90;;
84638;SDS011;74869;51.924;5.712;2024-03-23T15:41:19;1.58;;;0.85;;
84638;SDS011;74869;51.924;5.712;2024-03-23T15:43:45;2.53;;;0.70;;
84638;SDS011;74869;51.924;5.712;2024-03-23T15:46:10;2.03;;;0.63;;
84638;SDS011;74869;51.924;5.712;2024-03-23T15:48:36;2.75;;;0.60;;
84638;SDS011;74869;51.924;5.712;2024-03-23T15:51:02;3.15;;;0.65;;